createdAt,value
2016-12-17T00:01:02.396Z,93.4
2016-12-17T00:02:05.855Z,93.4
2016-12-17T00:03:08.799Z,93.4
2016-12-17T00:04:11.744Z,93.4
2016-12-17T00:05:15.191Z,93.4
2016-12-17T00:06:18.134Z,93.4
2016-12-17T00:07:21.213Z,93.4
2016-12-17T00:08:24.689Z,93.4
2016-12-17T00:09:27.632Z,93.4
2016-12-17T00:11:33.986Z,93.4
2016-12-17T00:12:36.932Z,93.4
2016-12-17T00:13:40.380Z,93.4
2016-12-17T00:14:43.319Z,93.4
2016-12-17T00:15:46.766Z,93.4
2016-12-17T00:16:49.918Z,93.4
2016-12-17T00:17:52.861Z,93.4
2016-12-17T00:18:56.313Z,93.4
2016-12-17T00:19:59.257Z,93.4
2016-12-17T00:21:02.201Z,93.4
2016-12-17T00:22:05.645Z,93.4
2016-12-17T00:23:08.591Z,93.4
2016-12-17T00:24:12.043Z,93.4
2016-12-17T00:25:14.984Z,93.4
2016-12-17T00:26:17.928Z,93.4
2016-12-17T00:27:21.376Z,93.4
2016-12-17T00:28:24.328Z,93.4
2016-12-17T00:29:27.771Z,93.4
2016-12-17T00:30:30.715Z,93.4
2016-12-17T00:31:33.657Z,93.4
2016-12-17T00:32:37.105Z,93.4
2016-12-17T00:33:40.052Z,93.4
2016-12-17T00:34:43.640Z,93.4
2016-12-17T00:35:46.584Z,93.4
2016-12-17T00:36:49.524Z,93.4
2016-12-17T00:37:53.002Z,93.4
2016-12-17T00:38:55.945Z,93.4
2016-12-17T00:39:59.028Z,93.3
2016-12-17T00:41:02.479Z,93.3
2016-12-17T00:42:05.418Z,93.3
2016-12-17T00:43:08.368Z,93.3
2016-12-17T00:44:11.815Z,93.3
2016-12-17T00:45:14.756Z,93.3
2016-12-17T00:46:18.199Z,93.3
2016-12-17T00:47:21.142Z,93.3
2016-12-17T00:48:24.587Z,93.3
2016-12-17T00:49:27.531Z,93.3
2016-12-17T00:50:30.475Z,93.3
2016-12-17T00:51:33.917Z,93.3
2016-12-17T00:52:36.859Z,93.3
2016-12-17T00:53:40.301Z,93.3
2016-12-17T00:54:43.244Z,93.3
2016-12-17T00:55:46.192Z,93.3
2016-12-17T00:56:49.633Z,93.3
2016-12-17T00:57:52.577Z,93.3
2016-12-17T00:58:56.020Z,93.3
2016-12-17T00:59:58.994Z,93.3
2016-12-17T01:01:01.935Z,93.3
2016-12-17T01:02:05.382Z,93.3
2016-12-17T01:03:08.638Z,93.3
2016-12-17T01:04:11.583Z,93.3
2016-12-17T01:05:14.528Z,93.3
2016-12-17T01:06:17.974Z,93.3
2016-12-17T01:07:20.917Z,93.3
2016-12-17T01:08:24.360Z,93.3
2016-12-17T01:09:27.308Z,93.3
2016-12-17T01:10:30.757Z,93.3
2016-12-17T01:11:33.701Z,93.3
2016-12-17T01:12:36.671Z,93.3
2016-12-17T01:13:40.118Z,93.3
2016-12-17T01:14:43.058Z,93.3
2016-12-17T01:16:49.418Z,93.3
2016-12-17T01:17:52.365Z,93.3
2016-12-17T01:18:55.813Z,93.2
2016-12-17T01:19:58.758Z,93.2
2016-12-17T01:21:02.339Z,93.3
2016-12-17T01:22:05.286Z,93.2
2016-12-17T01:23:08.229Z,93.2
2016-12-17T01:23:39.468Z,93.2
2016-12-17T01:24:11.712Z,93.2
2016-12-17T01:25:14.655Z,93.2
2016-12-17T01:26:17.593Z,93.2
2016-12-17T01:27:21.040Z,93.2
2016-12-17T01:28:23.988Z,93.2
2016-12-17T01:30:30.347Z,93.2
2016-12-17T01:31:33.288Z,93.2
2016-12-17T01:32:36.732Z,93.2
2016-12-17T01:33:39.676Z,93.2
2016-12-17T01:34:43.123Z,93.2
2016-12-17T01:35:46.066Z,93.2
2016-12-17T01:36:49.508Z,93.2
2016-12-17T01:37:52.450Z,93.2
2016-12-17T01:38:55.391Z,93.2
2016-12-17T01:39:58.843Z,93.2
2016-12-17T01:41:01.791Z,93.2
2016-12-17T01:42:05.238Z,93.2
2016-12-17T01:43:08.321Z,93.2
2016-12-17T01:44:11.553Z,93.2
2016-12-17T01:45:14.496Z,93.2
2016-12-17T01:46:17.439Z,93.2
2016-12-17T01:47:20.885Z,93.2
2016-12-17T01:48:23.826Z,93.2
2016-12-17T01:49:27.276Z,93.2
2016-12-17T01:50:30.219Z,93.2
2016-12-17T01:51:33.160Z,93.2
2016-12-17T01:52:36.605Z,93.2
2016-12-17T01:53:39.552Z,93.2
2016-12-17T01:54:42.998Z,93.2
2016-12-17T01:55:45.941Z,93.2
2016-12-17T01:56:48.883Z,93.2
2016-12-17T01:57:52.330Z,93.2
2016-12-17T01:58:55.270Z,93.2
2016-12-17T01:59:58.858Z,93.2
2016-12-17T02:01:01.802Z,93.2
2016-12-17T02:02:04.747Z,93.2
2016-12-17T02:03:08.194Z,93.2
2016-12-17T02:04:11.138Z,93.2
2016-12-17T02:05:14.078Z,93.2
2016-12-17T02:07:20.434Z,93.2
2016-12-17T02:09:26.789Z,93.2
2016-12-17T02:10:30.233Z,93.2
2016-12-17T02:11:33.178Z,93.2
2016-12-17T02:12:36.297Z,93.2
2016-12-17T02:13:39.240Z,93.2
2016-12-17T02:14:42.685Z,93.2
2016-12-17T02:15:45.632Z,93.2
2016-12-17T02:16:49.077Z,93.2
2016-12-17T02:17:52.022Z,93.2
2016-12-17T02:18:54.967Z,93.2
2016-12-17T02:19:58.413Z,93.2
2016-12-17T02:21:01.358Z,93.2
2016-12-17T02:22:04.805Z,93.2
2016-12-17T02:24:11.163Z,93.2
2016-12-17T02:25:14.104Z,93.2
2016-12-17T02:26:17.049Z,93.2
2016-12-17T02:27:20.499Z,93.2
2016-12-17T02:28:23.446Z,93.2
2016-12-17T02:29:26.894Z,93.2
2016-12-17T02:30:29.835Z,93.2
2016-12-17T02:31:32.775Z,93.2
2016-12-17T02:32:36.225Z,93.2
2016-12-17T02:33:39.168Z,93.2
2016-12-17T02:35:45.524Z,93.2
2016-12-17T02:36:48.970Z,93.2
2016-12-17T02:37:51.914Z,93.2
2016-12-17T02:38:54.854Z,93.1
2016-12-17T02:39:58.299Z,93.1
2016-12-17T02:41:01.241Z,93.1
2016-12-17T02:42:04.334Z,93.1
2016-12-17T02:43:07.777Z,93.1
2016-12-17T02:44:10.715Z,93.1
2016-12-17T02:45:13.661Z,93.1
2016-12-17T02:47:20.018Z,93.2
2016-12-17T02:48:23.470Z,93.1
2016-12-17T02:49:26.541Z,93.2
2016-12-17T02:50:29.488Z,93.2
2016-12-17T02:51:32.936Z,93.2
2016-12-17T02:52:35.876Z,93.2
2016-12-17T02:53:38.821Z,93.1
2016-12-17T02:54:42.270Z,93.2
2016-12-17T02:55:45.210Z,93.2
2016-12-17T02:56:48.655Z,93.2
2016-12-17T02:57:51.601Z,93.2
2016-12-17T02:58:54.542Z,93.2
2016-12-17T02:59:57.986Z,93.2
2016-12-17T03:01:00.933Z,93.2
2016-12-17T03:02:04.058Z,93.2
2016-12-17T03:04:10.417Z,93.2
2016-12-17T03:05:13.858Z,93.2
2016-12-17T03:06:16.804Z,93.2
2016-12-17T03:07:19.747Z,93.2
2016-12-17T03:08:23.190Z,93.2
2016-12-17T03:09:26.133Z,93.2
2016-12-17T03:10:29.588Z,93.2
2016-12-17T03:11:32.535Z,93.2
2016-12-17T03:12:35.481Z,93.2
2016-12-17T03:13:38.965Z,93.2
2016-12-17T03:14:41.906Z,93.2
2016-12-17T03:15:44.847Z,93.2
2016-12-17T03:16:48.290Z,93.2
2016-12-17T03:17:51.237Z,93.2
2016-12-17T03:18:54.680Z,93.2
2016-12-17T03:19:57.623Z,93.2
2016-12-17T03:21:00.566Z,93.2
2016-12-17T03:22:04.038Z,93.2
2016-12-17T03:23:06.989Z,93.2
2016-12-17T03:24:10.438Z,93.2
2016-12-17T03:25:13.605Z,93.2
2016-12-17T03:26:16.544Z,93.2
2016-12-17T03:27:19.484Z,93.3
2016-12-17T03:28:22.927Z,93.2
2016-12-17T03:29:25.870Z,93.3
2016-12-17T03:30:29.328Z,93.3
2016-12-17T03:31:32.272Z,93.3
2016-12-17T03:32:35.216Z,93.3
2016-12-17T03:33:38.668Z,93.3
2016-12-17T03:34:41.607Z,93.3
2016-12-17T03:36:47.960Z,93.2
2016-12-17T03:37:50.908Z,93.2
2016-12-17T03:38:54.353Z,93.2
2016-12-17T03:39:57.302Z,93.2
2016-12-17T03:41:00.747Z,93.2
2016-12-17T03:42:03.687Z,93.2
2016-12-17T03:43:06.662Z,93.2
2016-12-17T03:44:10.118Z,93.2
2016-12-17T03:45:13.063Z,93.2
2016-12-17T03:46:16.006Z,93.2
2016-12-17T03:47:19.448Z,93.2
2016-12-17T03:48:22.396Z,93.2
2016-12-17T03:49:25.843Z,93.2
2016-12-17T03:50:28.787Z,93.2
2016-12-17T03:51:31.729Z,93.2
2016-12-17T03:52:35.174Z,93.2
2016-12-17T03:53:38.117Z,93.2
2016-12-17T03:54:41.566Z,93.2
2016-12-17T03:55:44.508Z,93.2
2016-12-17T03:57:50.869Z,93.2
2016-12-17T03:58:53.815Z,93.2
2016-12-17T03:59:57.265Z,93.2
2016-12-17T04:01:00.346Z,93.2
2016-12-17T04:02:03.290Z,93.2
2016-12-17T04:03:06.737Z,93.2
2016-12-17T04:04:09.683Z,93.1
2016-12-17T04:05:12.624Z,93.1
2016-12-17T04:06:16.072Z,93.1
2016-12-17T04:07:19.018Z,93.1
2016-12-17T04:08:22.464Z,93.1
2016-12-17T04:09:25.406Z,93.1
2016-12-17T04:10:28.353Z,93.1
2016-12-17T04:11:31.937Z,93.1
2016-12-17T04:12:34.883Z,93.1
2016-12-17T04:13:37.833Z,93.1
2016-12-17T04:14:41.281Z,93.1
2016-12-17T04:15:44.228Z,93.1
2016-12-17T04:16:47.172Z,93.1
2016-12-17T04:17:50.615Z,93.1
2016-12-17T04:18:53.562Z,93.1
2016-12-17T04:19:57.018Z,93.1
2016-12-17T04:20:59.963Z,93.1
2016-12-17T04:22:02.921Z,93.1
2016-12-17T04:23:06.366Z,93.1
2016-12-17T04:24:09.304Z,93.1
2016-12-17T04:25:12.248Z,93.1
2016-12-17T04:26:15.697Z,93.1
2016-12-17T04:27:18.636Z,93
2016-12-17T04:29:24.990Z,93
2016-12-17T04:30:28.441Z,93
2016-12-17T04:31:31.382Z,93
2016-12-17T04:32:34.328Z,93
2016-12-17T04:33:37.924Z,93
2016-12-17T04:34:40.874Z,93
2016-12-17T04:35:43.818Z,93
2016-12-17T04:37:50.178Z,92.9
2016-12-17T04:38:53.123Z,92.9
2016-12-17T04:39:56.577Z,92.9
2016-12-17T04:40:59.524Z,92.9
2016-12-17T04:42:02.978Z,92.9
2016-12-17T04:43:05.924Z,92.9
2016-12-17T04:44:08.891Z,92.9
2016-12-17T04:45:12.334Z,92.9
2016-12-17T04:46:15.274Z,92.8
2016-12-17T04:47:18.220Z,92.8
2016-12-17T04:48:21.726Z,92.8
2016-12-17T04:49:24.667Z,92.8
2016-12-17T04:50:28.113Z,92.8
2016-12-17T04:51:31.087Z,92.8
2016-12-17T04:52:34.041Z,92.8
2016-12-17T04:53:37.487Z,92.8
2016-12-17T04:54:40.432Z,92.8
2016-12-17T04:55:43.378Z,92.8
2016-12-17T04:56:46.829Z,92.8
2016-12-17T04:58:53.185Z,92.7
2016-12-17T04:59:56.125Z,92.7
2016-12-17T05:00:59.064Z,92.7
2016-12-17T05:02:02.507Z,92.7
2016-12-17T05:03:05.451Z,92.7
2016-12-17T05:04:08.894Z,92.7
2016-12-17T05:05:11.842Z,92.7
2016-12-17T05:06:14.782Z,92.7
2016-12-17T05:07:18.243Z,92.7
2016-12-17T05:09:24.597Z,92.7
2016-12-17T05:10:27.539Z,92.7
2016-12-17T05:11:30.483Z,92.7
2016-12-17T05:12:33.929Z,92.7
2016-12-17T05:13:36.875Z,92.7
2016-12-17T05:14:40.323Z,92.6
2016-12-17T05:15:43.266Z,92.6
2016-12-17T05:16:46.213Z,92.6
2016-12-17T05:18:52.566Z,92.6
2016-12-17T05:19:56.012Z,92.6
2016-12-17T05:22:01.867Z,92.6
2016-12-17T05:23:05.318Z,92.6
2016-12-17T05:24:08.257Z,92.6
2016-12-17T05:25:11.708Z,92.7
2016-12-17T05:26:14.650Z,92.7
2016-12-17T05:27:17.594Z,92.7
2016-12-17T05:28:20.763Z,92.7
2016-12-17T05:29:24.210Z,92.8
2016-12-17T05:30:27.157Z,92.8
2016-12-17T05:31:30.640Z,92.8
2016-12-17T05:32:33.579Z,92.8
2016-12-17T05:33:36.525Z,92.8
2016-12-17T05:34:39.969Z,92.8
2016-12-17T05:35:42.915Z,92.8
2016-12-17T05:36:45.855Z,92.8
2016-12-17T05:37:49.303Z,92.8
2016-12-17T05:38:52.246Z,92.8
2016-12-17T05:39:55.698Z,92.8
2016-12-17T05:40:58.640Z,92.8
2016-12-17T05:42:01.586Z,92.8
2016-12-17T05:43:05.034Z,92.8
2016-12-17T05:44:07.974Z,92.8
2016-12-17T05:45:11.421Z,92.8
2016-12-17T05:46:14.367Z,92.8
2016-12-17T05:47:17.317Z,92.8
2016-12-17T05:49:23.674Z,92.8
2016-12-17T05:50:27.120Z,92.9
2016-12-17T05:51:30.069Z,92.9
2016-12-17T05:52:33.015Z,92.9
2016-12-17T05:53:36.459Z,92.9
2016-12-17T05:54:39.404Z,92.9
2016-12-17T05:55:42.850Z,92.9
2016-12-17T05:56:45.791Z,92.9
2016-12-17T05:57:48.730Z,92.9
2016-12-17T05:58:52.178Z,92.9
2016-12-17T05:59:55.115Z,92.9
2016-12-17T06:00:58.559Z,92.9
2016-12-17T06:02:01.502Z,92.9
2016-12-17T06:03:04.453Z,92.9
2016-12-17T06:04:07.899Z,92.9
2016-12-17T06:05:10.843Z,92.9
2016-12-17T06:06:13.790Z,92.9
2016-12-17T06:07:17.239Z,92.9
2016-12-17T06:08:20.318Z,92.9
2016-12-17T06:09:23.268Z,92.9
2016-12-17T06:11:29.621Z,92.9
2016-12-17T06:12:33.065Z,92.9
2016-12-17T06:13:36.008Z,92.9
2016-12-17T06:14:38.952Z,92.9
2016-12-17T06:15:42.135Z,92.9
2016-12-17T06:16:45.583Z,92.8
2016-12-17T06:17:48.526Z,92.8
2016-12-17T06:18:51.478Z,92.8
2016-12-17T06:19:54.924Z,92.8
2016-12-17T06:20:57.868Z,92.8
2016-12-17T06:22:01.317Z,92.8
2016-12-17T06:23:04.259Z,92.8
2016-12-17T06:24:07.200Z,92.8
2016-12-17T06:25:10.643Z,92.8
2016-12-17T06:26:13.592Z,92.8
2016-12-17T06:27:17.040Z,92.7
2016-12-17T06:28:20.014Z,92.7
2016-12-17T06:29:22.963Z,92.7
2016-12-17T06:30:26.411Z,92.7
2016-12-17T06:31:29.354Z,92.7
2016-12-17T06:32:32.298Z,92.7
2016-12-17T06:33:35.747Z,92.7
2016-12-17T06:34:38.691Z,92.6
2016-12-17T06:35:42.139Z,92.6
2016-12-17T06:36:45.089Z,92.6
2016-12-17T06:37:48.031Z,92.6
2016-12-17T06:38:51.477Z,92.6
2016-12-17T06:39:54.415Z,92.6
2016-12-17T06:40:57.865Z,92.6
2016-12-17T06:42:00.802Z,92.6
2016-12-17T06:43:03.739Z,92.6
2016-12-17T06:44:07.185Z,92.5
2016-12-17T06:45:10.125Z,92.5
2016-12-17T06:46:13.575Z,92.5
2016-12-17T06:47:16.524Z,92.5
2016-12-17T06:49:22.880Z,92.5
2016-12-17T06:50:25.820Z,92.5
2016-12-17T06:51:29.264Z,92.4
2016-12-17T06:52:32.206Z,92.4
2016-12-17T06:53:35.144Z,92.4
2016-12-17T06:54:38.589Z,92.4
2016-12-17T06:55:41.534Z,92.4
2016-12-17T06:56:44.978Z,92.4
2016-12-17T06:57:47.924Z,92.4
2016-12-17T06:58:50.875Z,92.4
2016-12-17T06:59:54.325Z,92.4
2016-12-17T07:00:57.269Z,92.4
2016-12-17T07:02:00.216Z,92.4
2016-12-17T07:03:03.659Z,92.4
2016-12-17T07:04:06.601Z,92.3
2016-12-17T07:05:10.046Z,92.3
2016-12-17T07:06:12.987Z,92.3
2016-12-17T07:07:15.931Z,92.3
2016-12-17T07:08:19.375Z,92.3
2016-12-17T07:09:22.322Z,92.3
2016-12-17T07:10:25.773Z,92.3
2016-12-17T07:11:28.718Z,92.3
2016-12-17T07:12:31.661Z,92.3
2016-12-17T07:13:35.108Z,92.3
2016-12-17T07:14:38.057Z,92.3
2016-12-17T07:15:41.000Z,92.3
2016-12-17T07:16:44.447Z,92.3
2016-12-17T07:17:47.398Z,92.3
2016-12-17T07:18:50.841Z,92.3
2016-12-17T07:19:53.782Z,92.3
2016-12-17T07:20:56.724Z,92.3
2016-12-17T07:22:00.173Z,92.3
2016-12-17T07:23:03.122Z,92.2
2016-12-17T07:24:06.569Z,92.2
2016-12-17T07:25:09.511Z,92.2
2016-12-17T07:26:12.453Z,92.2
2016-12-17T07:27:15.905Z,92.2
2016-12-17T07:28:18.852Z,92.2
2016-12-17T07:29:22.327Z,92.2
2016-12-17T07:30:25.271Z,92.2
2016-12-17T07:31:28.211Z,92.2
2016-12-17T07:32:31.657Z,92.2
2016-12-17T07:33:34.632Z,92.2
2016-12-17T07:34:37.578Z,92.2
2016-12-17T07:35:41.018Z,92.2
2016-12-17T07:36:43.960Z,92.2
2016-12-17T07:37:47.405Z,92.2
2016-12-17T07:38:50.353Z,92.2
2016-12-17T07:39:53.294Z,92.2
2016-12-17T07:40:56.746Z,92.2
2016-12-17T07:41:59.687Z,92.2
2016-12-17T07:43:03.133Z,92.2
2016-12-17T07:45:08.984Z,92.2
2016-12-17T07:46:12.429Z,92.2
2016-12-17T07:47:15.376Z,92.2
2016-12-17T07:48:18.824Z,92.2
2016-12-17T07:49:21.766Z,92.2
2016-12-17T07:50:24.715Z,92.2
2016-12-17T07:52:31.068Z,92.2
2016-12-17T07:53:34.513Z,92.2
2016-12-17T07:54:37.456Z,92.2
2016-12-17T07:55:40.399Z,92.2
2016-12-17T07:56:43.847Z,92.2
2016-12-17T07:57:46.791Z,92.2
2016-12-17T07:58:50.236Z,92.2
2016-12-17T07:59:53.178Z,92.2
2016-12-17T08:00:56.117Z,92.1
2016-12-17T08:01:59.562Z,92.1
2016-12-17T08:03:02.506Z,92.1
2016-12-17T08:04:05.957Z,92.1
2016-12-17T08:05:08.902Z,92.1
2016-12-17T08:06:11.844Z,92.1
2016-12-17T08:07:15.296Z,92.1
2016-12-17T08:08:18.237Z,92.1
2016-12-17T08:09:21.682Z,92.1
2016-12-17T08:10:24.629Z,92.2
2016-12-17T08:11:27.576Z,92.2
2016-12-17T08:12:31.026Z,92.2
2016-12-17T08:13:34.019Z,92.2
2016-12-17T08:14:36.957Z,92.2
2016-12-17T08:16:43.317Z,92.2
2016-12-17T08:17:46.771Z,92.2
2016-12-17T08:18:49.721Z,92.2
2016-12-17T08:19:52.664Z,92.2
2016-12-17T08:20:56.114Z,92.2
2016-12-17T08:21:59.062Z,92.2
2016-12-17T08:23:02.507Z,92.2
2016-12-17T08:24:05.454Z,92.2
2016-12-17T08:25:08.395Z,92.2
2016-12-17T08:26:11.843Z,92.2
2016-12-17T08:27:14.789Z,92.2
2016-12-17T08:28:18.235Z,92.2
2016-12-17T08:29:21.176Z,92.2
2016-12-17T08:30:24.130Z,92.2
2016-12-17T08:31:27.587Z,92.2
2016-12-17T08:32:30.527Z,92.2
2016-12-17T08:33:33.971Z,92.2
2016-12-17T08:34:36.914Z,92.2
2016-12-17T08:35:39.856Z,92.2
2016-12-17T08:36:43.344Z,92.2
2016-12-17T08:37:46.286Z,92.2
2016-12-17T08:38:49.736Z,92.2
2016-12-17T08:39:52.680Z,92.2
2016-12-17T08:40:55.621Z,92.2
2016-12-17T08:41:59.065Z,92.2
2016-12-17T08:43:02.010Z,92.2
2016-12-17T08:44:05.463Z,92.2
2016-12-17T08:45:08.405Z,92.2
2016-12-17T08:46:11.376Z,92.2
2016-12-17T08:47:14.823Z,92.2
2016-12-17T08:48:17.769Z,92.2
2016-12-17T08:49:21.215Z,92.2
2016-12-17T08:50:24.159Z,92.3
2016-12-17T08:51:27.105Z,92.3
2016-12-17T08:52:30.553Z,92.3
2016-12-17T08:53:33.500Z,92.3
2016-12-17T08:54:36.948Z,92.3
2016-12-17T08:55:39.895Z,92.3
2016-12-17T08:56:42.843Z,92.3
2016-12-17T08:57:46.292Z,92.3
2016-12-17T08:58:49.240Z,92.3
2016-12-17T08:59:52.694Z,92.3
2016-12-17T09:00:55.634Z,92.3
2016-12-17T09:01:58.580Z,92.3
2016-12-17T09:03:02.025Z,92.3
2016-12-17T09:04:04.968Z,92.3
2016-12-17T09:05:08.418Z,92.3
2016-12-17T09:06:11.361Z,92.3
2016-12-17T09:07:14.300Z,92.3
2016-12-17T09:08:17.749Z,92.3
2016-12-17T09:09:20.696Z,92.3
2016-12-17T09:11:27.080Z,92.3
2016-12-17T09:12:30.021Z,92.3
2016-12-17T09:13:33.468Z,92.3
2016-12-17T09:14:36.416Z,92.3
2016-12-17T09:15:39.871Z,92.3
2016-12-17T09:16:42.951Z,92.3
2016-12-17T09:17:45.897Z,92.3
2016-12-17T09:18:49.341Z,92.3
2016-12-17T09:20:55.695Z,92.3
2016-12-17T09:21:58.632Z,92.3
2016-12-17T09:23:01.575Z,92.3
2016-12-17T09:24:05.021Z,92.3
2016-12-17T09:25:07.969Z,92.3
2016-12-17T09:26:11.425Z,92.3
2016-12-17T09:27:14.370Z,92.3
2016-12-17T09:28:17.317Z,92.3
2016-12-17T09:29:20.761Z,92.3
2016-12-17T09:30:23.720Z,92.3
2016-12-17T09:31:27.165Z,92.3
2016-12-17T09:32:30.112Z,92.3
2016-12-17T09:33:33.056Z,92.3
2016-12-17T09:34:36.508Z,92.3
2016-12-17T09:35:39.449Z,92.3
2016-12-17T09:36:42.915Z,92.3
2016-12-17T09:37:45.994Z,92.3
2016-12-17T09:38:48.937Z,92.3
2016-12-17T09:39:52.382Z,92.3
2016-12-17T09:40:55.328Z,92.3
2016-12-17T09:41:58.270Z,92.3
2016-12-17T09:43:01.717Z,92.3
2016-12-17T09:44:04.659Z,92.3
2016-12-17T09:45:08.104Z,92.3
2016-12-17T09:46:11.061Z,92.3
2016-12-17T09:47:14.512Z,92.3
2016-12-17T09:48:17.458Z,92.4
2016-12-17T09:49:20.399Z,92.3
2016-12-17T09:50:23.847Z,92.3
2016-12-17T09:51:26.794Z,92.4
2016-12-17T09:52:30.246Z,92.3
2016-12-17T09:53:33.192Z,92.3
2016-12-17T09:54:36.131Z,92.3
2016-12-17T09:55:39.581Z,92.3
2016-12-17T09:56:42.524Z,92.3
2016-12-17T09:57:45.973Z,92.3
2016-12-17T09:58:48.914Z,92.4
2016-12-17T09:59:52.369Z,92.3
2016-12-17T10:00:55.317Z,92.3
2016-12-17T10:01:58.257Z,92.3
2016-12-17T10:03:01.706Z,92.3
2016-12-17T10:04:04.656Z,92.3
2016-12-17T10:05:08.103Z,92.4
2016-12-17T10:06:11.044Z,92.3
2016-12-17T10:07:13.988Z,92.3
2016-12-17T10:08:17.432Z,92.4
2016-12-17T10:09:20.369Z,92.4
2016-12-17T10:10:23.817Z,92.3
2016-12-17T10:11:26.769Z,92.3
2016-12-17T10:12:30.218Z,92.3
2016-12-17T10:13:33.161Z,92.3
2016-12-17T10:14:36.103Z,92.3
2016-12-17T10:15:39.550Z,92.3
2016-12-17T10:16:42.494Z,92.4
2016-12-17T10:18:48.850Z,92.4
2016-12-17T10:19:52.299Z,92.3
2016-12-17T10:20:55.240Z,92.3
2016-12-17T10:21:58.687Z,92.3
2016-12-17T10:23:01.630Z,92.3
2016-12-17T10:24:04.572Z,92.4
2016-12-17T10:25:08.021Z,92.3
2016-12-17T10:26:10.971Z,92.3
2016-12-17T10:27:14.416Z,92.3
2016-12-17T10:28:17.364Z,92.3
2016-12-17T10:29:20.442Z,92.3
2016-12-17T10:30:23.884Z,92.3
2016-12-17T10:31:26.825Z,92.3
2016-12-17T10:32:30.272Z,92.3
2016-12-17T10:33:33.216Z,92.3
2016-12-17T10:34:36.162Z,92.3
2016-12-17T10:35:39.755Z,92.3
2016-12-17T10:36:42.700Z,92.3
2016-12-17T10:37:49.952Z,92.3
2016-12-17T10:38:48.871Z,92.3
2016-12-17T10:39:52.323Z,92.3
2016-12-17T10:40:55.263Z,92.3
2016-12-17T10:41:58.715Z,92.3
2016-12-17T10:43:01.637Z,92.3
2016-12-17T10:44:04.870Z,92.3
2016-12-17T10:45:07.824Z,92.3
2016-12-17T10:46:11.275Z,92.3
2016-12-17T10:47:14.213Z,92.3
2016-12-17T10:48:17.654Z,92.3
2016-12-17T10:49:20.597Z,92.3
2016-12-17T10:50:23.537Z,92.3
2016-12-17T10:51:26.980Z,92.3
2016-12-17T10:52:29.931Z,92.4
2016-12-17T10:53:33.384Z,92.4
2016-12-17T10:54:36.329Z,92.4
2016-12-17T10:55:39.781Z,92.4
2016-12-17T10:56:42.718Z,92.4
2016-12-17T10:57:45.664Z,92.4
2016-12-17T10:58:49.116Z,92.4
2016-12-17T10:59:52.061Z,92.4
2016-12-17T11:00:55.504Z,92.4
2016-12-17T11:01:58.447Z,92.4
2016-12-17T11:03:01.895Z,92.4
2016-12-17T11:04:04.840Z,92.4
2016-12-17T11:05:08.287Z,92.4
2016-12-17T11:06:11.236Z,92.4
2016-12-17T11:07:14.181Z,92.4
2016-12-17T11:08:17.628Z,92.4
2016-12-17T11:09:20.574Z,92.4
2016-12-17T11:10:24.086Z,92.4
2016-12-17T11:11:27.032Z,92.4
2016-12-17T11:12:29.973Z,92.4
2016-12-17T11:13:33.419Z,92.4
2016-12-17T11:15:39.779Z,92.4
2016-12-17T11:16:42.718Z,92.4
2016-12-17T11:17:46.162Z,92.4
2016-12-17T11:18:49.134Z,92.4
2016-12-17T11:19:52.139Z,92.4
2016-12-17T11:20:55.588Z,92.4
2016-12-17T11:21:58.537Z,92.4
2016-12-17T11:23:01.982Z,92.4
2016-12-17T11:24:04.928Z,92.4
2016-12-17T11:25:08.377Z,92.4
2016-12-17T11:26:11.327Z,92.4
2016-12-17T11:27:14.271Z,92.4
2016-12-17T11:28:17.712Z,92.4
2016-12-17T11:29:20.659Z,92.4
2016-12-17T11:30:24.105Z,92.4
2016-12-17T11:31:27.049Z,92.4
2016-12-17T11:32:30.499Z,92.4
2016-12-17T11:33:33.446Z,92.4
2016-12-17T11:34:36.891Z,92.4
2016-12-17T11:35:39.973Z,92.4
2016-12-17T11:36:42.918Z,92.4
2016-12-17T11:37:46.374Z,92.4
2016-12-17T11:38:49.315Z,92.4
2016-12-17T11:39:52.260Z,92.4
2016-12-17T11:41:58.620Z,92.4
2016-12-17T11:43:02.067Z,92.4
2016-12-17T11:44:05.018Z,92.4
2016-12-17T11:45:08.465Z,92.4
2016-12-17T11:46:11.410Z,92.4
2016-12-17T11:47:14.857Z,92.4
2016-12-17T11:48:17.800Z,92.4
2016-12-17T11:49:20.747Z,92.4
2016-12-17T11:50:24.191Z,92.4
2016-12-17T11:51:27.135Z,92.4
2016-12-17T11:52:30.577Z,92.4
2016-12-17T11:53:33.754Z,92.4
2016-12-17T11:54:36.696Z,92.4
2016-12-17T11:55:40.149Z,92.4
2016-12-17T11:56:43.090Z,92.4
2016-12-17T11:57:46.538Z,92.4
2016-12-17T11:58:49.478Z,92.4
2016-12-17T11:59:52.420Z,92.4
2016-12-17T12:00:55.875Z,92.4
2016-12-17T12:01:58.818Z,92.5
2016-12-17T12:03:02.265Z,92.5
2016-12-17T12:04:05.218Z,92.5
2016-12-17T12:05:08.305Z,92.5
2016-12-17T12:06:11.756Z,92.5
2016-12-17T12:07:14.699Z,92.5
2016-12-17T12:08:18.148Z,92.5
2016-12-17T12:09:21.095Z,92.5
2016-12-17T12:10:24.550Z,92.5
2016-12-17T12:11:27.494Z,92.5
2016-12-17T12:12:30.440Z,92.5
2016-12-17T12:13:33.891Z,92.5
2016-12-17T12:14:36.834Z,92.5
2016-12-17T12:15:40.279Z,92.5
2016-12-17T12:16:43.220Z,92.5
2016-12-17T12:17:46.667Z,92.5
2016-12-17T12:18:49.609Z,92.5
2016-12-17T12:19:53.059Z,92.5
2016-12-17T12:20:56.008Z,92.5
2016-12-17T12:21:58.953Z,92.5
2016-12-17T12:23:02.403Z,92.5
2016-12-17T12:24:05.351Z,92.5
2016-12-17T12:25:08.806Z,92.5
2016-12-17T12:26:11.754Z,92.5
2016-12-17T12:27:15.202Z,92.5
2016-12-17T12:28:18.144Z,92.5
2016-12-17T12:29:21.589Z,92.5
2016-12-17T12:30:24.534Z,92.5
2016-12-17T12:31:27.478Z,92.5
2016-12-17T12:32:30.927Z,92.5
2016-12-17T12:33:33.870Z,92.5
2016-12-17T12:34:37.314Z,92.5
2016-12-17T12:35:40.260Z,92.5
2016-12-17T12:36:43.338Z,92.5
2016-12-17T12:37:46.784Z,92.6
2016-12-17T12:38:49.729Z,92.6
2016-12-17T12:39:53.181Z,92.6
2016-12-17T12:40:56.122Z,92.6
2016-12-17T12:41:59.567Z,92.6
2016-12-17T12:43:02.508Z,92.6
2016-12-17T12:44:05.959Z,92.6
2016-12-17T12:45:08.907Z,92.6
2016-12-17T12:46:11.853Z,92.6
2016-12-17T12:47:15.299Z,92.6
2016-12-17T12:48:18.244Z,92.6
2016-12-17T12:49:21.691Z,92.6
2016-12-17T12:50:24.632Z,92.6
2016-12-17T12:51:28.077Z,92.6
2016-12-17T12:52:31.023Z,92.6
2016-12-17T12:53:34.465Z,92.6
2016-12-17T12:54:37.408Z,92.6
2016-12-17T12:55:40.350Z,92.7
2016-12-17T12:56:43.794Z,92.7
2016-12-17T12:57:46.736Z,92.7
2016-12-17T12:58:50.180Z,92.7
2016-12-17T12:59:53.123Z,92.7
2016-12-17T13:00:56.572Z,92.7
2016-12-17T13:01:59.518Z,92.7
2016-12-17T13:03:02.629Z,92.7
2016-12-17T13:04:06.079Z,92.7
2016-12-17T13:05:09.019Z,92.7
2016-12-17T13:06:12.470Z,92.7
2016-12-17T13:07:15.418Z,92.7
2016-12-17T13:08:18.863Z,92.7
2016-12-17T13:09:21.809Z,92.7
2016-12-17T13:10:24.753Z,92.7
2016-12-17T13:11:28.199Z,92.7
2016-12-17T13:12:31.141Z,92.7
2016-12-17T13:13:34.586Z,92.7
2016-12-17T13:14:37.525Z,92.7
2016-12-17T13:15:40.970Z,92.7
2016-12-17T13:16:43.911Z,92.7
2016-12-17T13:17:47.360Z,92.7
2016-12-17T13:18:50.301Z,92.7
2016-12-17T13:19:53.754Z,92.7
2016-12-17T13:20:56.700Z,92.7
2016-12-17T13:21:59.640Z,92.7
2016-12-17T13:23:03.084Z,92.7
2016-12-17T13:24:06.028Z,92.7
2016-12-17T13:25:09.476Z,92.7
2016-12-17T13:26:12.417Z,92.7
2016-12-17T13:27:15.866Z,92.7
2016-12-17T13:28:18.812Z,92.7
2016-12-17T13:29:22.260Z,92.7
2016-12-17T13:30:25.202Z,92.7
2016-12-17T13:31:28.152Z,92.7
2016-12-17T13:32:31.603Z,92.7
2016-12-17T13:33:34.553Z,92.8
2016-12-17T13:34:38.003Z,92.8
2016-12-17T13:35:40.945Z,92.8
2016-12-17T13:36:44.398Z,92.8
2016-12-17T13:37:47.339Z,92.8
2016-12-17T13:38:50.781Z,92.8
2016-12-17T13:39:53.792Z,92.8
2016-12-17T13:40:56.734Z,92.8
2016-12-17T13:42:00.181Z,92.8
2016-12-17T13:43:03.442Z,92.8
2016-12-17T13:44:06.387Z,92.8
2016-12-17T13:46:12.738Z,92.8
2016-12-17T13:47:16.183Z,92.8
2016-12-17T13:48:19.122Z,92.8
2016-12-17T13:49:22.067Z,92.8
2016-12-17T13:51:28.421Z,92.8
2016-12-17T13:52:31.874Z,92.8
2016-12-17T13:53:34.816Z,92.8
2016-12-17T13:54:38.261Z,92.8
2016-12-17T13:55:41.197Z,92.8
2016-12-17T13:56:44.646Z,92.8
2016-12-17T13:57:47.590Z,92.8
2016-12-17T13:58:51.042Z,92.8
2016-12-17T13:59:53.991Z,92.8
2016-12-17T14:00:56.940Z,92.9
2016-12-17T14:02:00.391Z,92.8
2016-12-17T14:03:03.339Z,92.8
2016-12-17T14:04:06.785Z,92.8
2016-12-17T14:05:09.725Z,92.9
2016-12-17T14:06:13.171Z,92.9
2016-12-17T14:07:16.120Z,92.9
2016-12-17T14:08:19.570Z,92.9
2016-12-17T14:09:22.514Z,92.9
2016-12-17T14:10:25.458Z,92.9
2016-12-17T14:11:28.908Z,92.9
2016-12-17T14:12:31.854Z,92.9
2016-12-17T14:13:35.295Z,92.9
2016-12-17T14:14:38.239Z,92.9
2016-12-17T14:15:41.689Z,92.9
2016-12-17T14:16:44.637Z,92.9
2016-12-17T14:18:50.990Z,92.9
2016-12-17T14:19:54.441Z,92.9
2016-12-17T14:20:57.523Z,93
2016-12-17T14:22:00.611Z,93
2016-12-17T14:23:03.549Z,93
2016-12-17T14:24:06.992Z,93
2016-12-17T14:25:09.934Z,93
2016-12-17T14:26:13.391Z,93
2016-12-17T14:27:16.337Z,93
2016-12-17T14:28:19.780Z,93
2016-12-17T14:29:22.728Z,93
2016-12-17T14:30:26.202Z,93
2016-12-17T14:31:29.145Z,93
2016-12-17T14:32:32.120Z,93
2016-12-17T14:33:35.567Z,93